Terminal Aerodrome Forecast
Issued by NWS

Home | Current Version | Previous Version | Text Only | Print | Product List | Glossary On
Versions: 1 2 3 4 5 6 7 8 9 10 11 12 13 14 15 16 17 18 19
000
FTUS46 KSEW 231730
TAFHQM
TAF
KHQM 231730Z 2318/2418 22005KT P6SM BKN005 BKN010 OVC016
     FM232200 25012KT P6SM SCT007 OVC020
     FM240400 26009KT 2SM BR OVC007=

USA.gov is the U.S. government's official web portal to all federal, state and local government web resources and services.